Time;durP1;ratioP1;P1;durP2;ratioP2;P2;SDS_P1;SDS_P2;PMS_P1;PMS_P2;Temp;Humidity;BMP_temperature;BMP_pressure;BME280_temperature;BME280_humidity;BME280_pressure;Samples;Min_cycle;Max_cycle;Signal;HPM_P1;HPM_P2
2023/01/30 00:01:19;;;;;;;15.63;6.70;;;;;;;-2.78;79.43;92875.81;5026019;28;20040;-77
2023/01/30 00:03:45;;;;;;;16.67;7.35;;;;;;;-2.78;78.89;92875.81;5034948;28;20556;-77
2023/01/30 00:06:12;;;;;;;16.45;6.75;;;;;;;-2.78;79.27;92871.47;5051862;28;20346;-78
2023/01/30 00:08:37;;;;;;;16.23;7.57;;;;;;;-2.79;78.93;92862.22;5048294;28;20047;-78
2023/01/30 00:11:05;;;;;;;17.25;7.88;;;;;;;-2.77;78.89;92867.94;5043728;28;20025;-77
2023/01/30 00:13:32;;;;;;;18.20;8.05;;;;;;;-2.77;78.80;92864.56;5053233;28;20037;-78
2023/01/30 00:15:57;;;;;;;18.10;7.10;;;;;;;-2.77;78.77;92862.81;5031868;28;20048;-78
2023/01/30 00:18:23;;;;;;;12.57;6.68;;;;;;;-2.78;78.07;92850.97;5051455;28;20471;-77
2023/01/30 00:21:02;;;;;;;14.70;6.68;;;;;;;-2.79;78.00;92846.84;5034961;28;20041;-77
2023/01/30 00:23:29;;;;;;;14.07;6.35;;;;;;;-2.76;78.14;92849.00;5037771;28;20048;-77
2023/01/30 00:25:55;;;;;;;19.38;6.88;;;;;;;-2.78;78.56;92835.59;5038003;28;20049;-77
2023/01/30 00:28:21;;;;;;;16.70;6.90;;;;;;;-2.76;78.48;92836.19;5055587;28;20072;-77
2023/01/30 00:30:51;;;;;;;15.52;7.70;;;;;;;-2.77;78.40;92831.25;5029965;28;20098;-77
2023/01/30 00:33:19;;;;;;;20.55;8.25;;;;;;;-2.75;79.27;92834.41;5054547;28;20071;-77
2023/01/30 00:35:45;;;;;;;18.23;8.10;;;;;;;-2.77;80.06;92832.06;5043679;28;20122;-77
2023/01/30 00:38:11;;;;;;;18.52;8.35;;;;;;;-2.79;80.44;92833.22;5052693;28;20045;-78
2023/01/30 00:40:37;;;;;;;18.50;8.40;;;;;;;-2.86;80.36;92823.00;5034444;28;20043;-77
2023/01/30 00:48:32;;;;;;;18.15;8.07;;;;;;;-2.78;79.67;92833.03;5053296;28;20577;-77
2023/01/30 00:50:58;;;;;;;16.92;7.68;;;;;;;-2.77;80.38;92828.69;5036233;28;20045;-78
2023/01/30 00:53:23;;;;;;;17.33;8.05;;;;;;;-2.76;80.14;92827.72;5031912;28;20513;-77
2023/01/30 00:55:53;;;;;;;18.35;8.80;;;;;;;-2.82;80.29;92819.03;5051572;28;20430;-77
2023/01/30 00:58:19;;;;;;;21.50;8.65;;;;;;;-2.81;79.94;92820.63;5034036;28;20088;-77
2023/01/30 01:00:45;;;;;;;16.75;8.38;;;;;;;-2.78;80.42;92824.56;5051210;28;20124;-78
2023/01/30 01:03:11;;;;;;;17.77;8.50;;;;;;;-2.78;79.91;92820.22;5036052;28;20613;-77
2023/01/30 01:05:37;;;;;;;15.77;7.68;;;;;;;-2.79;80.71;92821.22;5029804;28;20064;-77
2023/01/30 01:08:03;;;;;;;21.50;8.90;;;;;;;-2.80;80.44;92816.28;5053961;28;20033;-77
2023/01/30 01:10:29;;;;;;;19.88;8.05;;;;;;;-2.80;80.59;92811.94;5029122;28;20033;-77
2023/01/30 01:12:54;;;;;;;17.92;8.27;;;;;;;-2.80;80.16;92816.28;5054004;28;20045;-78
2023/01/30 01:15:22;;;;;;;22.17;8.75;;;;;;;-2.80;80.59;92814.50;5034709;28;20158;-77
2023/01/30 01:17:49;;;;;;;18.52;8.38;;;;;;;-2.87;80.55;92800.91;5035078;28;20045;-77
2023/01/30 01:20:16;;;;;;;17.17;8.05;;;;;;;-2.79;80.73;92813.53;5053486;28;20032;-77
2023/01/30 01:22:42;;;;;;;15.60;7.85;;;;;;;-2.82;80.62;92808.78;5040608;28;20634;-77
2023/01/30 01:25:09;;;;;;;19.85;8.60;;;;;;;-2.84;80.86;92805.63;5024486;28;20401;-77
2023/01/30 01:27:35;;;;;;;17.65;8.48;;;;;;;-2.83;81.25;92811.56;5031102;28;20033;-77
2023/01/30 01:30:01;;;;;;;20.45;8.57;;;;;;;-2.84;81.18;92809.97;5032165;28;20053;-77
2023/01/30 01:32:26;;;;;;;18.95;8.43;;;;;;;-2.85;80.63;92810.97;4999113;28;20050;-77
2023/01/30 01:34:52;;;;;;;18.83;8.75;;;;;;;-2.85;80.97;92808.41;5016436;28;20069;-78
2023/01/30 01:37:18;;;;;;;16.85;8.10;;;;;;;-2.86;81.13;92807.63;5032518;28;20123;-77
2023/01/30 01:42:34;;;;;;;19.45;8.25;;;;;;;-2.86;81.43;92806.81;5032142;28;20045;-78
2023/01/30 01:45:12;;;;;;;21.73;9.18;;;;;;;-2.87;81.84;92805.25;5014463;28;20080;-78
2023/01/30 01:48:03;;;;;;;15.98;7.85;;;;;;;-2.88;81.06;92801.91;5031729;28;20454;-78
2023/01/30 01:50:44;;;;;;;17.67;8.15;;;;;;;-2.92;81.11;92790.47;5014298;28;20125;-77
2023/01/30 01:53:12;;;;;;;14.63;7.50;;;;;;;-2.88;80.89;92793.41;5015514;28;20119;-76
2023/01/30 01:55:40;;;;;;;17.15;7.82;;;;;;;-2.90;80.57;92791.06;5014832;28;20041;-76
2023/01/30 01:58:26;;;;;;;14.43;7.50;;;;;;;-2.88;80.99;92795.97;5013043;28;21371;-77
2023/01/30 02:00:55;;;;;;;18.55;8.45;;;;;;;-2.87;81.01;92795.78;4995980;28;20042;-77
2023/01/30 02:03:24;;;;;;;15.80;7.97;;;;;;;-2.86;81.19;92796.56;4995735;28;20095;-77
2023/01/30 02:05:54;;;;;;;20.15;8.32;;;;;;;-2.88;81.71;92798.53;5008478;28;20068;-77
2023/01/30 02:08:28;;;;;;;17.58;8.32;;;;;;;-2.90;81.12;92801.31;5030712;28;20115;-77
2023/01/30 02:11:30;;;;;;;22.15;8.02;;;;;;;-2.90;81.21;92791.06;5014743;28;20073;-77
2023/01/30 02:13:59;;;;;;;16.80;7.78;;;;;;;-2.92;80.98;92782.00;5031304;28;20128;-77
2023/01/30 02:16:24;;;;;;;20.60;7.90;;;;;;;-2.89;81.12;92777.25;5014397;28;20619;-79
2023/01/30 02:18:51;;;;;;;18.67;8.02;;;;;;;-2.92;81.49;92767.41;5010820;28;20046;-77
2023/01/30 02:21:39;;;;;;;16.30;6.75;;;;;;;-2.89;81.03;92774.69;4996078;28;20045;-78
2023/01/30 02:24:31;;;;;;;16.85;7.70;;;;;;;-2.86;81.21;92771.75;5013606;28;20046;-77
2023/01/30 02:27:16;;;;;;;19.42;8.40;;;;;;;-2.85;80.72;92767.41;5027075;28;20492;-77
2023/01/30 02:30:00;;;;;;;18.65;7.70;;;;;;;-2.85;81.07;92769.97;5009296;28;20076;-77
2023/01/30 02:32:41;;;;;;;13.98;7.32;;;;;;;-2.85;80.97;92768.19;5011667;28;20040;-77
2023/01/30 02:35:16;;;;;;;20.77;8.23;;;;;;;-2.85;80.30;92765.63;5012053;28;20538;-77
2023/01/30 02:37:57;;;;;;;14.35;7.35;;;;;;;-2.83;80.55;92770.56;5023470;28;20757;-78
2023/01/30 02:40:28;;;;;;;16.35;7.57;;;;;;;-2.85;80.65;92763.06;5013933;28;20522;-77
2023/01/30 02:43:15;;;;;;;16.02;7.15;;;;;;;-2.86;79.90;92761.50;5029111;28;20041;-77
2023/01/30 02:45:44;;;;;;;14.63;7.35;;;;;;;-2.87;80.20;92759.91;5014232;28;20170;-77
2023/01/30 02:48:28;;;;;;;24.88;8.18;;;;;;;-2.86;79.60;92753.81;5013569;28;20033;-77
2023/01/30 02:51:02;;;;;;;14.30;6.83;;;;;;;-2.86;79.52;92761.50;5032585;28;20449;-77
2023/01/30 02:53:32;;;;;;;13.70;7.10;;;;;;;-2.83;79.34;92761.09;5014738;28;20290;-77
2023/01/30 02:55:59;;;;;;;16.85;7.10;;;;;;;-2.84;79.49;92744.13;5013787;28;20740;-77
2023/01/30 02:58:30;;;;;;;14.10;6.75;;;;;;;-2.88;79.29;92747.28;5030287;28;20041;-77
2023/01/30 03:01:14;;;;;;;17.20;6.18;;;;;;;-2.89;79.98;92750.84;5012106;28;20530;-77
2023/01/30 03:03:59;;;;;;;16.30;7.03;;;;;;;-2.91;79.41;92743.34;5007622;28;20158;-77
2023/01/30 03:06:46;;;;;;;13.30;6.65;;;;;;;-2.93;79.17;92740.19;5034064;28;20387;-77
2023/01/30 03:09:21;;;;;;;14.30;7.38;;;;;;;-3.01;78.84;92730.16;5026781;28;20045;-77
2023/01/30 03:12:00;;;;;;;11.98;6.15;;;;;;;-2.94;79.01;92741.97;5029500;28;20037;-77
2023/01/30 03:14:34;;;;;;;12.82;6.47;;;;;;;-2.96;79.67;92731.13;5012486;28;20092;-77
2023/01/30 03:17:05;;;;;;;13.10;6.63;;;;;;;-2.94;79.43;92738.63;5030417;28;20034;-77
2023/01/30 03:19:31;;;;;;;15.95;5.95;;;;;;;-2.93;79.10;92735.06;5021409;28;20045;-77
2023/01/30 03:21:59;;;;;;;16.95;6.55;;;;;;;-2.92;78.87;92726.41;4998036;28;20041;-77
2023/01/30 03:24:25;;;;;;;15.93;6.60;;;;;;;-2.92;78.88;92720.50;5015020;28;20054;-77
2023/01/30 03:26:58;;;;;;;12.50;6.43;;;;;;;-2.92;78.95;92718.72;5036066;28;20530;-77
2023/01/30 03:29:24;;;;;;;13.00;6.13;;;;;;;-2.91;79.24;92712.59;5038757;28;20126;-77
2023/01/30 03:31:50;;;;;;;14.55;6.13;;;;;;;-2.91;78.38;92707.47;5044517;28;20057;-77
2023/01/30 03:34:15;;;;;;;13.93;6.68;;;;;;;-2.93;78.90;92701.75;5035804;28;20045;-78
2023/01/30 03:36:41;;;;;;;12.68;6.35;;;;;;;-2.92;79.27;92700.78;5036800;28;20041;-78
2023/01/30 03:39:07;;;;;;;13.32;6.35;;;;;;;-2.93;79.01;92694.06;5034456;28;20052;-77
2023/01/30 03:41:33;;;;;;;14.30;6.40;;;;;;;-2.94;79.83;92687.41;5034344;28;20049;-77
2023/01/30 03:44:00;;;;;;;15.85;6.60;;;;;;;-2.93;78.96;92688.94;5034409;28;20045;-77
2023/01/30 03:46:25;;;;;;;14.13;6.50;;;;;;;-2.94;78.54;92687.41;5054916;28;20462;-77
2023/01/30 03:48:52;;;;;;;16.48;6.90;;;;;;;-2.94;78.62;92682.28;5051397;28;20049;-77
2023/01/30 03:51:18;;;;;;;16.25;6.68;;;;;;;-2.94;78.48;92683.06;5031661;28;20041;-77
2023/01/30 03:53:43;;;;;;;15.18;6.32;;;;;;;-2.94;78.36;92680.50;5053431;28;20561;-77
2023/01/30 03:56:10;;;;;;;16.98;6.75;;;;;;;-2.96;78.15;92668.88;5035021;28;20071;-77
2023/01/30 03:58:36;;;;;;;11.52;5.78;;;;;;;-2.97;78.88;92667.31;5024820;28;20523;-77
2023/01/30 04:01:14;;;;;;;14.77;6.40;;;;;;;-3.00;79.01;92662.56;5037208;28;20041;-78
2023/01/30 04:03:40;;;;;;;14.63;6.75;;;;;;;-3.00;79.00;92667.69;5037114;28;20052;-77
2023/01/30 04:06:05;;;;;;;13.48;5.97;;;;;;;-2.99;78.64;92669.28;5036250;28;20037;-78
2023/01/30 04:08:31;;;;;;;14.88;5.97;;;;;;;-3.01;78.72;92666.91;5035496;28;20051;-77
2023/01/30 04:10:57;;;;;;;13.77;6.07;;;;;;;-3.00;78.25;92662.56;5027567;28;20047;-77
2023/01/30 04:13:23;;;;;;;14.80;7.25;;;;;;;-2.99;78.34;92659.03;5036664;28;20055;-78
2023/01/30 04:15:48;;;;;;;15.40;7.03;;;;;;;-2.96;78.12;92663.75;5037129;28;20044;-77
2023/01/30 04:18:52;;;;;;;18.92;6.25;;;;;;;-2.96;78.28;92664.53;5052666;28;20106;-77
2023/01/30 04:21:19;;;;;;;15.18;6.95;;;;;;;-2.95;78.40;92670.44;5037093;28;20049;-77
2023/01/30 04:23:45;;;;;;;12.45;7.00;;;;;;;-2.95;78.74;92665.31;5053995;28;20351;-77
2023/01/30 04:26:12;;;;;;;14.98;6.60;;;;;;;-2.96;78.59;92667.09;5034734;28;20069;-77
2023/01/30 04:28:40;;;;;;;16.67;7.18;;;;;;;-2.97;78.65;92678.34;5033810;28;20101;-77
2023/01/30 04:31:06;;;;;;;18.08;6.85;;;;;;;-3.00;78.65;92675.38;5019129;28;20049;-78
2023/01/30 04:33:38;;;;;;;18.15;7.00;;;;;;;-3.01;78.70;92676.38;5053244;28;20044;-77
2023/01/30 04:36:07;;;;;;;13.48;6.00;;;;;;;-3.07;79.01;92665.13;5036367;28;20127;-77
2023/01/30 04:38:33;;;;;;;17.67;6.72;;;;;;;-3.01;79.08;92663.56;5053122;28;20032;-77
2023/01/30 04:41:00;;;;;;;13.23;5.90;;;;;;;-3.03;78.44;92668.88;5026566;28;20159;-77
2023/01/30 04:43:29;;;;;;;11.48;5.82;;;;;;;-2.97;78.14;92680.13;5029854;28;20056;-77
2023/01/30 04:45:55;;;;;;;12.85;5.57;;;;;;;-2.97;77.98;92668.09;5052946;28;20068;-77
2023/01/30 04:48:22;;;;;;;10.55;4.80;;;;;;;-2.95;77.68;92661.00;5035335;28;20071;-77
2023/01/30 04:50:50;;;;;;;13.05;5.68;;;;;;;-2.94;77.27;92656.66;5034316;28;20095;-78
2023/01/30 04:53:17;;;;;;;14.35;6.00;;;;;;;-2.94;77.99;92660.00;5036842;28;20036;-78
2023/01/30 04:55:43;;;;;;;14.80;5.57;;;;;;;-2.95;77.33;92661.00;5032848;28;20048;-78
2023/01/30 04:58:09;;;;;;;13.90;5.53;;;;;;;-2.97;77.19;92654.50;5033535;28;20037;-77
2023/01/30 05:00:35;;;;;;;16.35;5.45;;;;;;;-3.02;77.13;92652.50;5020922;28;20045;-78
2023/01/30 05:03:00;;;;;;;12.48;5.85;;;;;;;-2.90;77.11;92662.16;5037479;28;20094;-78
2023/01/30 05:05:27;;;;;;;11.75;5.38;;;;;;;-2.94;76.82;92651.53;5053205;28;20037;-78
2023/01/30 05:07:53;;;;;;;14.02;6.68;;;;;;;-2.91;77.59;92663.16;5053780;28;20033;-78
2023/01/30 05:10:19;;;;;;;20.17;6.53;;;;;;;-2.97;77.44;92662.19;5051333;28;20041;-77
2023/01/30 05:12:45;;;;;;;12.40;5.63;;;;;;;-2.97;77.94;92652.72;5053367;28;20032;-77
2023/01/30 05:15:12;;;;;;;13.10;5.43;;;;;;;-2.94;77.80;92661.78;5053558;28;20045;-77
2023/01/30 05:17:37;;;;;;;13.93;6.30;;;;;;;-2.95;77.85;92645.63;5054342;28;20048;-77
2023/01/30 05:20:06;;;;;;;9.10;5.13;;;;;;;-2.91;76.93;92650.34;5034280;28;20037;-77
2023/01/30 05:22:31;;;;;;;11.05;5.40;;;;;;;-2.91;76.90;92645.22;5045650;28;20122;-78
2023/01/30 05:24:57;;;;;;;11.98;6.03;;;;;;;-2.90;76.94;92634.78;5040859;28;20057;-78
2023/01/30 05:27:23;;;;;;;14.70;5.68;;;;;;;-2.89;76.68;92638.13;5033804;28;20029;-77
2023/01/30 05:29:48;;;;;;;13.95;6.57;;;;;;;-2.87;77.28;92638.72;5017400;28;20044;-77
2023/01/30 05:32:15;;;;;;;11.98;5.78;;;;;;;-2.94;77.57;92631.81;5052045;28;20041;-78
2023/01/30 05:34:41;;;;;;;11.55;5.70;;;;;;;-2.89;77.10;92638.13;5050142;28;20045;-77
2023/01/30 05:37:08;;;;;;;11.52;5.60;;;;;;;-2.88;77.29;92643.06;5033709;28;20029;-79
2023/01/30 05:39:34;;;;;;;10.98;5.38;;;;;;;-2.85;77.37;92639.28;5055138;28;20044;-77
2023/01/30 05:41:59;;;;;;;10.43;5.40;;;;;;;-2.85;76.92;92629.06;5045643;28;20446;-79
2023/01/30 05:44:25;;;;;;;10.85;4.82;;;;;;;-2.83;77.33;92612.47;5053099;28;20477;-76
2023/01/30 05:46:51;;;;;;;10.85;5.07;;;;;;;-2.83;76.74;92627.06;5063223;28;20082;-79
2023/01/30 05:49:16;;;;;;;11.70;5.13;;;;;;;-2.81;77.31;92610.50;5039442;28;20057;-78
2023/01/30 05:51:42;;;;;;;11.00;4.72;;;;;;;-2.79;76.79;92615.41;5052440;28;20044;-78
2023/01/30 05:54:07;;;;;;;12.57;4.63;;;;;;;-2.79;76.90;92618.78;5054165;28;20051;-78
2023/01/30 05:56:33;;;;;;;9.55;4.55;;;;;;;-2.77;76.29;92609.13;5051633;28;20105;-81
2023/01/30 05:59:00;;;;;;;10.70;4.60;;;;;;;-2.75;76.68;92617.41;5052885;28;20045;-78
2023/01/30 06:01:27;;;;;;;8.55;4.40;;;;;;;-2.74;76.50;92629.22;5034384;28;20491;-79
2023/01/30 06:03:53;;;;;;;10.63;4.80;;;;;;;-2.72;76.76;92634.94;5044277;28;20040;-80
2023/01/30 06:06:20;;;;;;;8.90;4.25;;;;;;;-2.66;76.70;92637.66;5032990;28;20065;-78
2023/01/30 06:08:46;;;;;;;9.25;4.40;;;;;;;-2.60;76.41;92642.00;5050614;28;20105;-78
2023/01/30 06:11:14;;;;;;;9.57;4.35;;;;;;;-2.57;76.00;92632.13;5034303;28;20115;-77
2023/01/30 06:13:40;;;;;;;7.78;3.78;;;;;;;-2.54;75.74;92630.94;5018230;28;20045;-78
2023/01/30 06:16:09;;;;;;;7.93;4.18;;;;;;;-2.58;75.70;92615.16;5034004;28;20036;-78
2023/01/30 06:18:35;;;;;;;10.88;4.60;;;;;;;-2.51;75.51;92615.16;5053447;28;20039;-78
2023/01/30 06:21:00;;;;;;;11.05;4.68;;;;;;;-2.48;75.66;92612.16;5051540;28;20035;-78
2023/01/30 06:23:26;;;;;;;9.88;4.18;;;;;;;-2.47;75.24;92624.00;5053207;28;20040;-78
2023/01/30 06:25:53;;;;;;;9.40;4.57;;;;;;;-2.44;74.86;92633.06;5051897;28;20050;-78
2023/01/30 06:28:19;;;;;;;8.73;4.32;;;;;;;-2.37;74.29;92626.91;5053472;28;20252;-78
2023/01/30 06:30:44;;;;;;;10.80;4.93;;;;;;;-2.31;74.93;92608.16;5054219;28;20569;-78
2023/01/30 06:33:11;;;;;;;13.18;4.40;;;;;;;-2.30;74.71;92606.38;5052424;28;20396;-78
2023/01/30 06:35:37;;;;;;;8.70;4.40;;;;;;;-2.28;74.49;92619.78;5052618;28;20033;-77
2023/01/30 06:38:04;;;;;;;10.52;4.35;;;;;;;-2.17;72.58;92613.22;5051796;28;20045;-79
2023/01/30 06:40:29;;;;;;;11.57;5.57;;;;;;;-1.94;71.00;92610.13;5052802;28;20434;-79
2023/01/30 06:42:55;;;;;;;16.65;7.30;;;;;;;-1.96;72.20;92617.25;5036299;28;20048;-79
2023/01/30 06:45:20;;;;;;;11.50;5.28;;;;;;;-2.00;71.98;92601.50;5035507;28;20033;-79
2023/01/30 06:47:49;;;;;;;9.60;4.65;;;;;;;-2.03;71.88;92591.63;5052648;28;20106;-78
2023/01/30 06:50:16;;;;;;;10.73;4.95;;;;;;;-2.07;71.86;92600.75;5039889;28;20060;-79
2023/01/30 06:52:44;;;;;;;13.45;4.43;;;;;;;-2.13;72.47;92599.78;5055596;28;20044;-78
2023/01/30 06:55:11;;;;;;;9.68;4.13;;;;;;;-2.16;72.13;92592.50;5021640;28;20392;-79
2023/01/30 06:57:37;;;;;;;9.57;4.50;;;;;;;-2.19;72.50;92586.97;5035137;28;20053;-78
2023/01/30 07:00:08;;;;;;;9.82;4.18;;;;;;;-2.20;72.25;92575.16;5035809;28;20063;-78
2023/01/30 07:02:34;;;;;;;11.80;5.32;;;;;;;-2.20;72.16;92577.72;5031979;28;20049;-77
2023/01/30 07:05:01;;;;;;;13.00;4.95;;;;;;;-2.23;71.78;92578.13;5051433;28;20487;-78
2023/01/30 07:07:28;;;;;;;13.25;4.57;;;;;;;-2.00;71.70;92582.75;5016048;28;20049;-78
2023/01/30 07:09:54;;;;;;;9.88;4.22;;;;;;;-1.48;70.25;92584.16;5056482;28;20106;-77
2023/01/30 07:12:19;;;;;;;10.20;4.47;;;;;;;-0.81;69.17;92590.44;5053272;28;20064;-78
2023/01/30 07:14:45;;;;;;;11.43;4.90;;;;;;;-0.90;68.18;92597.66;5071332;28;20510;-77
2023/01/30 07:17:10;;;;;;;12.98;4.30;;;;;;;-1.03;67.75;92605.50;5053346;28;20048;-80
2023/01/30 07:19:37;;;;;;;10.10;4.45;;;;;;;-1.13;66.82;92595.69;5065265;28;20053;-77
2023/01/30 07:22:03;;;;;;;12.85;4.40;;;;;;;-1.22;67.69;92600.31;5050030;28;20069;-79
2023/01/30 07:24:29;;;;;;;9.57;4.70;;;;;;;-1.24;67.65;92612.59;5039402;28;20592;-79
2023/01/30 07:26:55;;;;;;;10.05;4.68;;;;;;;-1.40;68.03;92595.91;5050374;28;20045;-78
2023/01/30 07:29:21;;;;;;;9.88;5.43;;;;;;;-1.36;68.81;92601.44;5033156;28;20059;-78
2023/01/30 07:31:46;;;;;;;9.52;4.35;;;;;;;-1.30;68.11;92603.94;5055019;28;20052;-77
2023/01/30 07:34:12;;;;;;;10.85;5.00;;;;;;;-0.27;66.94;92610.22;5072082;28;20043;-77
2023/01/30 07:36:37;;;;;;;8.73;4.60;;;;;;;1.39;64.32;92619.81;5071788;28;20053;-78
2023/01/30 07:39:04;;;;;;;9.75;4.60;;;;;;;1.53;60.92;92619.56;5053937;28;20124;-78
2023/01/30 07:41:30;;;;;;;11.85;4.85;;;;;;;1.35;59.65;92615.31;5048436;28;20124;-78
2023/01/30 07:43:55;;;;;;;9.77;4.38;;;;;;;1.25;58.92;92618.47;5046093;28;20037;-78
2023/01/30 07:46:21;;;;;;;8.60;4.70;;;;;;;1.28;58.42;92615.44;5051510;28;20561;-78
2023/01/30 07:48:47;;;;;;;9.10;4.55;;;;;;;2.04;57.06;92617.97;5052128;28;20350;-78
2023/01/30 07:51:12;;;;;;;8.60;4.50;;;;;;;3.22;53.62;92617.28;5053755;28;20060;-78
2023/01/30 07:53:38;;;;;;;12.32;4.85;;;;;;;4.72;52.25;92609.13;5039596;28;20098;-78
2023/01/30 07:56:08;;;;;;;8.77;4.75;;;;;;;6.25;46.30;92613.66;5047936;28;20044;-79
2023/01/30 07:58:34;;;;;;;8.32;4.43;;;;;;;7.46;44.83;92605.41;5053832;28;20071;-79
2023/01/30 08:01:00;;;;;;;10.32;5.15;;;;;;;7.42;42.53;92594.72;5030456;28;20048;-78
2023/01/30 08:03:26;;;;;;;12.02;5.53;;;;;;;7.37;42.57;92599.19;5048977;28;20507;-78
2023/01/30 08:05:52;;;;;;;13.05;5.30;;;;;;;8.13;42.30;92592.97;5077447;28;20028;-78
2023/01/30 08:08:20;;;;;;;10.45;5.25;;;;;;;8.70;40.28;92577.78;5063634;28;20458;-79
2023/01/30 08:10:49;;;;;;;13.70;6.75;;;;;;;8.01;40.24;92587.25;5054776;28;20277;-78
2023/01/30 08:13:15;;;;;;;11.18;5.93;;;;;;;7.32;42.06;92583.53;5054683;28;20111;-79
2023/01/30 08:15:40;;;;;;;9.55;5.57;;;;;;;7.84;39.71;92595.44;5060249;28;20041;-79
2023/01/30 08:18:06;;;;;;;13.98;7.00;;;;;;;7.97;40.88;92597.47;5059327;28;20049;-78
2023/01/30 08:20:32;;;;;;;12.55;6.57;;;;;;;7.87;42.71;92587.84;5032580;28;20049;-79
2023/01/30 08:22:58;;;;;;;12.68;6.53;;;;;;;7.82;41.86;92587.09;5056521;28;20036;-79
2023/01/30 08:25:24;;;;;;;15.18;6.78;;;;;;;7.51;43.05;92584.56;5059304;28;20033;-79
2023/01/30 08:27:50;;;;;;;15.18;6.43;;;;;;;7.30;42.82;92582.00;5059277;28;20067;-79
2023/01/30 08:30:17;;;;;;;12.10;6.63;;;;;;;6.80;42.81;92588.81;5040254;28;20032;-79
2023/01/30 08:32:42;;;;;;;12.70;6.15;;;;;;;6.71;43.52;92589.56;5069976;28;20041;-79
2023/01/30 08:35:09;;;;;;;13.07;5.45;;;;;;;6.99;43.33;92601.28;5079142;28;20041;-79
2023/01/30 08:37:34;;;;;;;10.10;6.05;;;;;;;8.41;40.36;92599.38;5070031;28;20056;-79
2023/01/30 08:40:00;;;;;;;10.90;5.47;;;;;;;9.37;39.31;92591.88;5040836;28;20063;-79
2023/01/30 08:42:26;;;;;;;10.65;5.35;;;;;;;10.73;34.04;92575.16;5057605;28;20075;-79
2023/01/30 08:44:51;;;;;;;13.13;6.75;;;;;;;10.31;37.47;92597.69;5058624;28;20037;-79
2023/01/30 08:47:17;;;;;;;10.40;5.20;;;;;;;10.19;34.92;92598.06;5059726;28;20052;-79
2023/01/30 08:49:42;;;;;;;8.35;4.97;;;;;;;10.82;33.46;92604.88;5057958;28;20239;-80
2023/01/30 08:52:09;;;;;;;8.65;5.03;;;;;;;11.93;30.31;92600.69;5040969;28;20081;-80
2023/01/30 08:54:34;;;;;;;10.80;5.80;;;;;;;11.33;32.10;92603.31;5058904;28;20126;-79
2023/01/30 08:57:00;;;;;;;8.63;5.25;;;;;;;12.19;32.24;92608.09;5041413;28;20045;-79
2023/01/30 08:59:26;;;;;;;10.13;5.88;;;;;;;11.93;33.68;92599.94;5041554;28;20033;-79
2023/01/30 09:01:51;;;;;;;12.68;6.43;;;;;;;10.61;35.35;92615.63;5063085;28;20128;-80
2023/01/30 09:04:17;;;;;;;11.90;6.63;;;;;;;9.57;36.73;92618.88;5078212;28;20032;-79
2023/01/30 09:06:42;;;;;;;13.52;5.78;;;;;;;9.63;37.10;92623.00;5055808;28;20051;-79
2023/01/30 09:09:08;;;;;;;11.55;5.93;;;;;;;9.46;36.99;92617.44;5058990;28;20148;-79
2023/01/30 09:11:34;;;;;;;12.63;7.18;;;;;;;9.75;37.26;92615.56;5058571;28;20041;-79
2023/01/30 09:13:59;;;;;;;14.32;7.28;;;;;;;8.28;40.09;92611.13;5063844;28;20051;-79
2023/01/30 09:16:25;;;;;;;8.85;4.55;;;;;;;8.76;40.62;92608.03;5040009;28;20045;-79
2023/01/30 09:18:50;;;;;;;17.33;8.30;;;;;;;8.29;41.25;92596.28;5057716;28;20037;-79
2023/01/30 09:21:16;;;;;;;12.77;7.20;;;;;;;8.70;40.54;92585.63;5056438;28;20053;-79
2023/01/30 09:23:42;;;;;;;14.77;7.07;;;;;;;9.43;39.82;92576.91;5060355;28;20453;-79
2023/01/30 09:26:07;;;;;;;16.88;7.70;;;;;;;9.68;39.52;92582.94;5060905;28;20049;-79
2023/01/30 09:28:33;;;;;;;16.15;7.32;;;;;;;8.90;41.07;92569.81;5056380;28;20388;-79
2023/01/30 09:31:00;;;;;;;15.48;7.28;;;;;;;8.80;40.98;92567.28;5057650;28;20117;-79
2023/01/30 09:33:26;;;;;;;12.55;6.78;;;;;;;8.03;42.20;92556.50;5056135;28;20033;-79
2023/01/30 09:35:52;;;;;;;19.58;7.35;;;;;;;8.22;42.69;92554.03;5070802;28;20127;-79
2023/01/30 09:38:18;;;;;;;19.02;7.93;;;;;;;8.91;42.02;92554.94;5034413;28;20045;-79
2023/01/30 09:41:23;;;;;;;14.80;7.10;;;;;;;7.56;44.18;92566.31;5036873;28;20072;-79
2023/01/30 09:44:02;;;;;;;14.70;7.40;;;;;;;6.60;45.85;92562.78;5037176;28;20053;-79
2023/01/30 09:46:42;;;;;;;14.90;7.15;;;;;;;7.39;46.15;92565.84;5072119;28;20048;-79
2023/01/30 09:49:11;;;;;;;15.98;6.90;;;;;;;7.54;43.50;92565.00;5071369;28;20519;-80
2023/01/30 09:51:47;;;;;;;15.55;7.07;;;;;;;8.43;43.66;92552.91;5055889;28;20402;-80
2023/01/30 09:54:28;;;;;;;12.65;5.80;;;;;;;8.51;40.16;92552.34;5056422;28;20072;-79
2023/01/30 09:57:21;;;;;;;9.98;5.15;;;;;;;7.40;42.77;92549.94;5072407;28;20506;-79
2023/01/30 10:00:29;;;;;;;12.73;6.13;;;;;;;7.60;43.22;92551.72;5045400;28;20060;-79
2023/01/30 10:03:07;;;;;;;14.73;6.70;;;;;;;8.37;41.16;92547.97;4958580;28;20050;-80
2023/01/30 10:05:48;;;;;;;13.90;5.93;;;;;;;9.63;40.88;92555.03;5041261;28;20043;-80
2023/01/30 10:08:38;;;;;;;11.02;5.38;;;;;;;10.00;37.38;92551.75;5037377;28;20053;-79
2023/01/30 10:11:43;;;;;;;16.38;6.68;;;;;;;9.75;38.65;92547.59;5035189;28;20045;-79
2023/01/30 10:14:22;;;;;;;12.80;6.03;;;;;;;11.07;35.64;92526.97;5033081;28;20049;-80
2023/01/30 10:17:25;;;;;;;14.95;6.15;;;;;;;10.76;35.81;92527.44;5035997;28;20052;-80
2023/01/30 10:20:15;;;;;;;12.60;5.95;;;;;;;9.94;38.10;92528.56;5065706;28;20495;-80
2023/01/30 10:22:51;;;;;;;9.02;4.25;;;;;;;9.33;38.34;92533.41;5054994;28;20426;-80
2023/01/30 10:25:42;;;;;;;15.07;6.47;;;;;;;8.63;40.55;92510.25;5037742;28;20056;-79
2023/01/30 10:28:48;;;;;;;10.68;5.75;;;;;;;7.95;41.32;92507.53;5057862;28;20071;-79
2023/01/30 10:31:17;;;;;;;12.77;4.40;;;;;;;7.61;41.55;92500.38;5038171;28;20052;-79
2023/01/30 10:33:49;;;;;;;13.82;6.47;;;;;;;7.97;42.00;92508.03;5056009;28;20505;-79
2023/01/30 10:36:22;;;;;;;13.05;6.40;;;;;;;8.12;41.13;92498.28;5037187;28;20481;-80
2023/01/30 10:38:50;;;;;;;10.98;4.85;;;;;;;9.31;37.92;92496.31;5068193;28;20048;-79
2023/01/30 10:41:31;;;;;;;14.18;7.22;;;;;;;9.54;38.55;92486.16;5077015;28;20059;-79
2023/01/30 10:44:08;;;;;;;13.10;6.75;;;;;;;9.38;38.22;92480.31;5059508;28;20070;-79
2023/01/30 10:46:52;;;;;;;16.80;5.88;;;;;;;10.10;36.58;92474.97;5058844;28;20040;-80
2023/01/30 10:49:40;;;;;;;16.35;7.20;;;;;;;9.52;39.30;92472.56;5042290;28;20041;-80
2023/01/30 10:52:23;;;;;;;7.30;4.13;;;;;;;9.44;38.21;92463.53;5043690;28;20163;-79
2023/01/30 10:54:54;;;;;;;12.70;6.68;;;;;;;8.76;39.68;92461.88;5056825;28;20417;-80
2023/01/30 10:57:19;;;;;;;11.00;6.10;;;;;;;8.64;38.40;92456.22;5038251;28;20048;-80
2023/01/30 11:00:28;;;;;;;7.93;4.43;;;;;;;8.33;40.76;92466.88;5060095;28;20037;-79
2023/01/30 11:03:28;;;;;;;11.75;5.93;;;;;;;8.75;38.82;92455.09;4980232;28;20107;-79
2023/01/30 11:06:06;;;;;;;17.15;6.05;;;;;;;8.58;37.83;92447.69;5076803;28;20102;-80
2023/01/30 11:08:33;;;;;;;13.50;6.53;;;;;;;8.94;38.54;92444.75;5061556;28;20458;-79
2023/01/30 11:11:00;;;;;;;9.52;5.60;;;;;;;8.75;38.46;92445.41;5051116;28;20086;-79
2023/01/30 11:13:31;;;;;;;15.55;6.38;;;;;;;8.24;39.73;92440.63;5037807;28;20041;-80
2023/01/30 11:16:02;;;;;;;13.63;6.15;;;;;;;8.16;39.99;92440.41;5055532;28;20457;-80
2023/01/30 11:18:28;;;;;;;13.03;6.73;;;;;;;8.17;40.18;92436.75;5055050;28;20044;-79
2023/01/30 11:21:12;;;;;;;10.95;5.80;;;;;;;8.29;38.99;92430.13;5037471;28;20063;-80
2023/01/30 11:23:42;;;;;;;10.35;5.72;;;;;;;8.95;38.16;92420.94;5056083;28;20045;-80
2023/01/30 11:26:31;;;;;;;10.32;5.68;;;;;;;9.61;36.98;92421.25;5054496;28;20056;-80
2023/01/30 11:28:58;;;;;;;12.10;5.82;;;;;;;9.13;36.55;92410.84;5033640;28;20064;-80
2023/01/30 11:31:28;;;;;;;14.20;5.45;;;;;;;8.57;37.95;92414.81;5064993;28;20410;-80
2023/01/30 11:34:16;;;;;;;17.80;6.30;;;;;;;8.56;37.72;92408.03;5076497;28;20675;-80
2023/01/30 11:36:42;;;;;;;9.98;5.18;;;;;;;8.44;37.81;92400.56;5075956;28;20052;-80
2023/01/30 11:39:14;;;;;;;10.45;5.90;;;;;;;8.46;38.53;92397.69;5058976;28;20124;-80
2023/01/30 11:42:03;;;;;;;13.70;5.90;;;;;;;8.27;38.75;92400.16;5075529;28;20052;-79
2023/01/30 11:44:36;;;;;;;11.73;5.85;;;;;;;8.45;38.50;92407.34;5068107;28;20033;-80
2023/01/30 11:47:22;;;;;;;9.60;5.15;;;;;;;8.16;38.61;92398.69;5059703;28;20059;-80
2023/01/30 11:49:53;;;;;;;6.82;3.58;;;;;;;8.72;38.06;92403.44;5061019;28;20071;-80
2023/01/30 11:52:24;;;;;;;13.55;4.78;;;;;;;8.53;38.22;92411.97;5057829;28;20549;-80